Flight Track Log - Related Links

Times and Time Zones

All times are in EST time to prevent confusion due to time zone crossing. See the N1727L flight status page for this flight to view local times or setup timezone preferences in your user account.

Time Position Orientation Groundspeed Altitude Reporting Facility
EST Latitude Longitude Course Direction KTS MPH feet Rate Location/Type
Mon 10:42:33 AM 32.6736 -96.3433 112° Southeast 141 162 3,500  Level Fort Worth Center
Mon 10:43:35 AM 32.6572 -96.2942 112° Southeast 149 171 3,500  Level Fort Worth Center
Mon 10:44:37 AM 32.6417 -96.2475 112° Southeast 152 175 3,500  Level Fort Worth Center
Mon 10:45:39 AM 32.6244 -96.1978 112° Southeast 152 175 3,500  Level Fort Worth Center
Mon 10:46:41 AM 32.6089 -96.1514 112° Southeast 152 175 3,500  Level Fort Worth Center
Mon 10:47:43 AM 32.5917 -96.1022 113° Southeast 151 174 3,500  Level Fort Worth Center
Mon 10:48:45 AM 32.5758 -96.0550 112° Southeast 153 176 3,500  Level Fort Worth Center
Mon 10:49:48 AM 32.5664 -96.0019 102° East 152 175 3,500  Level Fort Worth Center
Mon 10:50:50 AM 32.5619 -95.9511 96° East 155 178 3,500  Level Fort Worth Center
Mon 10:51:52 AM 32.5533 -95.8981 101° East 153 176 3,500  Level Fort Worth Center
Mon 10:52:54 AM 32.5461 -95.8483 100° East 154 177 3,500  Level Fort Worth Center
Mon 10:53:56 AM 32.5406 -95.7978 97° East 156 180 3,500 -97 Level Fort Worth Center
Mon 10:54:58 AM 32.5317 -95.7436 101° East 156 180 3,300 -242 Descending Fort Worth Center
Mon 10:56:00 AM 32.5294 -95.6967 93° East 165 190 3,000 -290 Descending Fort Worth Center
Mon 10:57:00 AM 32.4970 -95.6696 145° Southeast  Level FlightAware Approximate
Mon 11:04:00 AM 32.3500 -95.4000 121° Southeast  Level FlightAware Approximate
Mon 11:05:00 AM 32.3538 -95.4027 121° Southeast  Level Estimated
Mon 11:06:00 AM 32.3500 -95.4000 121° Southeast  Level FlightAware Approximate
Mon 11:07:00 AM 32.3538 -95.4027 121° Southeast  Level Estimated
Mon 11:08:00 AM 32.3500 -95.4000 121° Southeast  Level FlightAware Approximate
Mon 11:09:00 AM 32.3538 -95.4027 121° Southeast  Level Estimated

Login

Don't have an account? Register now (free) for customized features, flight alerts, and more!